Time;durP1;ratioP1;P1;durP2;ratioP2;P2;SDS_P1;SDS_P2;PMS_P1;PMS_P2;Temp;Humidity;BMP_temperature;BMP_pressure;BME280_temperature;BME280_humidity;BME280_pressure;Samples;Min_cycle;Max_cycle;Signal;HPM_P1;HPM_P2
2023/04/23 00:01:51;;;;;;;;;;;13.40;99.90;;;;;;5099337;28;19908;-59
2023/04/23 00:04:18;;;;;;;;;;;13.40;99.90;;;;;;5099118;28;20364;-59
2023/04/23 00:06:45;;;;;;;;;;;13.50;99.90;;;;;;5098185;28;19915;-59
2023/04/23 00:09:12;;;;;;;;;;;13.50;99.90;;;;;;5099653;28;19912;-59
2023/04/23 00:11:38;;;;;;;;;;;13.40;99.90;;;;;;5100048;28;19938;-59
2023/04/23 00:14:04;;;;;;;;;;;13.40;99.90;;;;;;5099142;28;20398;-59
2023/04/23 00:16:30;;;;;;;;;;;13.40;99.90;;;;;;5099243;28;19908;-59
2023/04/23 00:18:55;;;;;;;;;;;13.30;99.90;;;;;;5099079;28;19908;-59
2023/04/23 00:21:21;;;;;;;;;;;13.30;99.90;;;;;;5099261;28;20062;-59
2023/04/23 00:23:47;;;;;;;;;;;13.30;99.90;;;;;;5099420;28;19908;-59
2023/04/23 00:26:13;;;;;;;;;;;13.00;99.90;;;;;;5097509;28;20365;-59
2023/04/23 00:28:38;;;;;;;;;;;13.00;99.90;;;;;;5098447;28;19920;-58
2023/04/23 00:31:04;;;;;;;;;;;12.90;99.90;;;;;;5099357;28;19915;-59
2023/04/23 00:33:30;;;;;;;;;;;12.90;99.90;;;;;;5098793;28;19908;-59
2023/04/23 00:35:55;;;;;;;;;;;12.90;99.90;;;;;;5098769;28;20388;-59
2023/04/23 00:38:21;;;;;;;;;;;12.80;99.90;;;;;;5099186;28;20260;-59
2023/04/23 00:40:47;;;;;;;;;;;12.80;99.90;;;;;;5098871;28;19945;-59
2023/04/23 00:43:14;;;;;;;;;;;12.80;99.90;;;;;;5098889;28;19908;-59
2023/04/23 00:45:40;;;;;;;;;;;12.80;99.90;;;;;;5098802;28;19912;-59
2023/04/23 00:48:06;;;;;;;;;;;12.70;99.90;;;;;;5098966;28;19999;-59
2023/04/23 00:50:31;;;;;;;;;;;12.70;99.90;;;;;;5098633;28;19919;-58
2023/04/23 00:52:57;;;;;;;;;;;12.70;99.90;;;;;;5098555;28;19908;-55
2023/04/23 00:55:23;;;;;;;;;;;12.60;99.90;;;;;;5098659;28;20252;-58
2023/04/23 00:57:49;;;;;;;;;;;12.50;99.90;;;;;;5098427;28;19920;-60
2023/04/23 01:00:15;;;;;;;;;;;12.50;99.90;;;;;;5098700;28;19949;-58
2023/04/23 01:02:42;;;;;;;;;;;12.40;99.90;;;;;;5098577;28;20006;-58
2023/04/23 01:05:08;;;;;;;;;;;12.30;99.90;;;;;;5098624;28;19915;-58
2023/04/23 01:07:34;;;;;;;;;;;12.30;99.90;;;;;;5098529;28;19908;-58
2023/04/23 01:10:00;;;;;;;;;;;12.20;99.90;;;;;;5098320;28;20345;-58
2023/04/23 01:12:25;;;;;;;;;;;12.20;99.90;;;;;;5098486;28;19915;-59
2023/04/23 01:14:51;;;;;;;;;;;12.10;99.90;;;;;;5098506;28;19908;-59
2023/04/23 01:17:16;;;;;;;;;;;12.10;99.90;;;;;;5098487;28;19947;-58
2023/04/23 01:19:42;;;;;;;;;;;12.00;99.90;;;;;;5097996;28;19909;-58
2023/04/23 01:22:08;;;;;;;;;;;12.00;99.90;;;;;;5098591;28;19908;-58
2023/04/23 01:24:35;;;;;;;;;;;11.90;99.90;;;;;;5098396;28;19908;-58
2023/04/23 01:27:01;;;;;;;;;;;11.90;99.90;;;;;;5098091;28;19931;-58
2023/04/23 01:29:27;;;;;;;;;;;11.80;99.90;;;;;;5097890;28;19912;-59
2023/04/23 01:31:53;;;;;;;;;;;11.80;99.90;;;;;;5098117;28;19965;-59
2023/04/23 01:34:19;;;;;;;;;;;11.80;99.90;;;;;;5098134;28;19934;-59
2023/04/23 01:36:46;;;;;;;;;;;11.80;99.90;;;;;;5098282;28;19914;-58
2023/04/23 01:39:12;;;;;;;;;;;11.80;99.90;;;;;;5098268;28;19914;-59
2023/04/23 01:41:38;;;;;;;;;;;11.80;99.90;;;;;;5098267;28;19983;-59
2023/04/23 01:44:03;;;;;;;;;;;12.00;99.90;;;;;;5098169;28;20390;-59
2023/04/23 01:46:29;;;;;;;;;;;11.70;99.90;;;;;;5098453;28;20371;-59
2023/04/23 01:48:55;;;;;;;;;;;11.80;99.90;;;;;;5097916;28;20018;-59
2023/04/23 01:51:22;;;;;;;;;;;11.80;99.90;;;;;;5097911;28;19914;-59
2023/04/23 01:53:48;;;;;;;;;;;11.90;99.90;;;;;;5097891;28;19911;-59
2023/04/23 01:56:14;;;;;;;;;;;11.80;99.90;;;;;;5098203;28;20410;-59
2023/04/23 01:58:40;;;;;;;;;;;11.90;99.90;;;;;;5098466;28;19915;-59
2023/04/23 02:01:05;;;;;;;;;;;11.80;99.90;;;;;;5097881;28;20321;-59
2023/04/23 02:03:32;;;;;;;;;;;11.90;99.90;;;;;;5097783;28;19908;-59
2023/04/23 02:05:59;;;;;;;;;;;11.90;99.90;;;;;;5097591;28;20003;-59
2023/04/23 02:08:25;;;;;;;;;;;11.90;99.90;;;;;;5097957;28;19915;-59
2023/04/23 02:10:51;;;;;;;;;;;12.00;99.90;;;;;;5097445;28;19912;-59
2023/04/23 02:13:17;;;;;;;;;;;12.00;99.90;;;;;;5098135;28;19974;-59
2023/04/23 02:15:42;;;;;;;;;;;12.00;99.90;;;;;;5100834;28;20341;-59
2023/04/23 02:18:08;;;;;;;;;;;12.00;99.90;;;;;;5101746;28;19998;-59
2023/04/23 02:20:37;;;;;;;;;;;12.10;99.90;;;;;;5101510;28;19908;-59
2023/04/23 02:23:03;;;;;;;;;;;12.20;99.90;;;;;;5101483;28;19917;-59
2023/04/23 02:25:30;;;;;;;;;;;12.20;99.90;;;;;;5101732;28;19912;-59
2023/04/23 02:27:56;;;;;;;;;;;12.20;99.90;;;;;;5100948;28;19920;-59
2023/04/23 02:30:22;;;;;;;;;;;12.20;99.90;;;;;;5101106;28;19919;-59
2023/04/23 02:32:50;;;;;;;;;;;12.20;99.90;;;;;;5100454;28;20197;-59
2023/04/23 02:35:15;;;;;;;;;;;12.30;99.90;;;;;;5100985;28;20326;-59
2023/04/23 02:37:41;;;;;;;;;;;12.30;99.90;;;;;;5101488;28;19915;-59
2023/04/23 02:40:07;;;;;;;;;;;12.30;99.90;;;;;;5101161;28;19991;-59
2023/04/23 02:42:33;;;;;;;;;;;12.30;99.90;;;;;;5101079;28;20074;-59
2023/04/23 02:44:58;;;;;;;;;;;12.30;99.90;;;;;;5101063;28;19908;-60
2023/04/23 02:47:24;;;;;;;;;;;12.30;99.90;;;;;;5100992;28;19968;-60
2023/04/23 02:49:50;;;;;;;;;;;12.30;99.90;;;;;;5100630;28;19912;-60
2023/04/23 02:52:15;;;;;;;;;;;12.30;99.90;;;;;;5101223;28;20259;-60
2023/04/23 02:54:41;;;;;;;;;;;12.30;99.90;;;;;;5100913;28;19908;-59
2023/04/23 02:57:06;;;;;;;;;;;12.30;99.90;;;;;;5100702;28;19908;-60
2023/04/23 02:59:32;;;;;;;;;;;12.20;99.90;;;;;;5101063;28;20372;-60
2023/04/23 03:01:58;;;;;;;;;;;12.20;99.90;;;;;;5100718;28;19947;-60
2023/04/23 03:04:23;;;;;;;;;;;12.10;99.90;;;;;;5100704;28;19908;-60
2023/04/23 03:06:49;;;;;;;;;;;12.20;99.90;;;;;;5100534;28;19993;-59
2023/04/23 03:09:14;;;;;;;;;;;12.10;99.90;;;;;;5100355;28;19918;-59
2023/04/23 03:11:40;;;;;;;;;;;12.20;99.90;;;;;;5100441;28;19908;-59
2023/04/23 03:14:06;;;;;;;;;;;12.30;99.90;;;;;;5100721;28;20336;-60
2023/04/23 03:16:31;;;;;;;;;;;12.20;99.90;;;;;;5100858;28;20262;-59
2023/04/23 03:18:57;;;;;;;;;;;12.10;99.90;;;;;;5100412;28;19923;-60
2023/04/23 03:21:23;;;;;;;;;;;12.10;99.90;;;;;;5100378;28;19908;-60
2023/04/23 03:23:49;;;;;;;;;;;12.00;99.90;;;;;;5100336;28;19919;-59
2023/04/23 03:26:14;;;;;;;;;;;12.10;99.90;;;;;;5099371;28;20298;-59
2023/04/23 03:28:40;;;;;;;;;;;12.00;99.90;;;;;;5099697;28;20295;-59
2023/04/23 03:31:06;;;;;;;;;;;12.00;99.90;;;;;;5100358;28;19974;-60
2023/04/23 03:33:31;;;;;;;;;;;12.00;99.90;;;;;;5099754;28;19912;-59
2023/04/23 03:35:57;;;;;;;;;;;12.00;99.90;;;;;;5100125;28;19909;-59
2023/04/23 03:38:22;;;;;;;;;;;11.90;99.90;;;;;;5100341;28;19908;-59
2023/04/23 03:40:48;;;;;;;;;;;11.90;99.90;;;;;;5099792;28;20275;-59
2023/04/23 03:43:13;;;;;;;;;;;11.90;99.90;;;;;;5100004;28;19914;-59
2023/04/23 03:45:39;;;;;;;;;;;11.90;99.90;;;;;;5099668;28;20007;-59
2023/04/23 03:48:05;;;;;;;;;;;11.80;99.90;;;;;;5099927;28;20009;-59
2023/04/23 03:50:33;;;;;;;;;;;11.90;99.90;;;;;;5099511;28;19961;-59
2023/04/23 03:52:59;;;;;;;;;;;11.90;99.90;;;;;;5099625;28;19912;-59
2023/04/23 03:55:24;;;;;;;;;;;11.80;99.90;;;;;;5099710;28;19954;-59
2023/04/23 03:57:50;;;;;;;;;;;12.00;99.90;;;;;;5099930;28;19908;-59
2023/04/23 04:00:16;;;;;;;;;;;11.90;99.90;;;;;;5099443;28;19926;-59
2023/04/23 04:02:42;;;;;;;;;;;11.90;99.90;;;;;;5099466;28;20003;-59
2023/04/23 04:05:09;;;;;;;;;;;11.80;99.90;;;;;;5099434;28;19908;-59
2023/04/23 04:07:35;;;;;;;;;;;11.80;99.90;;;;;;5099293;28;19914;-59
2023/04/23 04:10:02;;;;;;;;;;;11.80;99.90;;;;;;5098982;28;20017;-59
2023/04/23 04:12:28;;;;;;;;;;;11.70;99.90;;;;;;5098914;28;19916;-59
2023/04/23 04:14:53;;;;;;;;;;;11.70;99.90;;;;;;5098830;28;20338;-59
2023/04/23 04:17:19;;;;;;;;;;;11.70;99.90;;;;;;5099190;28;20333;-59
2023/04/23 04:19:45;;;;;;;;;;;11.60;99.90;;;;;;5098792;28;19908;-59
2023/04/23 04:22:10;;;;;;;;;;;11.70;99.90;;;;;;5098974;28;19915;-59
2023/04/23 04:24:36;;;;;;;;;;;11.70;99.90;;;;;;5099019;28;19934;-59
2023/04/23 04:27:03;;;;;;;;;;;11.60;99.90;;;;;;5098737;28;19927;-59
2023/04/23 04:29:30;;;;;;;;;;;11.70;99.90;;;;;;5098602;28;19920;-59
2023/04/23 04:31:56;;;;;;;;;;;11.60;99.90;;;;;;5098578;28;19908;-59
2023/04/23 04:34:22;;;;;;;;;;;11.60;99.90;;;;;;5098780;28;19908;-59
2023/04/23 04:36:47;;;;;;;;;;;11.70;99.90;;;;;;5098217;28;20287;-59
2023/04/23 04:39:13;;;;;;;;;;;11.70;99.90;;;;;;5098910;28;19908;-59
2023/04/23 04:41:40;;;;;;;;;;;11.60;99.90;;;;;;5098583;28;19913;-59
2023/04/23 04:44:07;;;;;;;;;;;11.70;99.90;;;;;;5098210;28;20375;-59
2023/04/23 04:46:33;;;;;;;;;;;11.60;99.90;;;;;;5098284;28;19938;-59
2023/04/23 04:48:59;;;;;;;;;;;11.60;99.90;;;;;;5098102;28;19912;-59
2023/04/23 04:51:25;;;;;;;;;;;11.60;99.90;;;;;;5098278;28;20335;-59
2023/04/23 04:53:51;;;;;;;;;;;11.50;99.90;;;;;;5098415;28;19915;-59
2023/04/23 04:56:17;;;;;;;;;;;11.50;99.90;;;;;;5098389;28;19908;-59
2023/04/23 04:58:42;;;;;;;;;;;11.50;99.90;;;;;;5098643;28;19929;-59
2023/04/23 05:01:09;;;;;;;;;;;11.50;99.90;;;;;;5098171;28;19908;-59
2023/04/23 05:03:35;;;;;;;;;;;11.40;99.90;;;;;;5097920;28;19912;-59
2023/04/23 05:06:01;;;;;;;;;;;11.40;99.90;;;;;;5098316;28;19913;-59
2023/04/23 05:08:27;;;;;;;;;;;11.40;99.90;;;;;;5098079;28;19915;-59
2023/04/23 05:10:53;;;;;;;;;;;11.40;99.90;;;;;;5098210;28;19919;-59
2023/04/23 05:13:18;;;;;;;;;;;11.40;99.90;;;;;;5098039;28;19943;-59
2023/04/23 05:15:47;;;;;;;;;;;11.30;99.90;;;;;;5098168;28;19922;-59
2023/04/23 05:18:12;;;;;;;;;;;11.20;99.90;;;;;;5098510;28;19971;-59
2023/04/23 05:20:38;;;;;;;;;;;11.20;99.90;;;;;;5097944;28;20351;-59
2023/04/23 05:23:03;;;;;;;;;;;11.00;99.90;;;;;;5097977;28;19967;-59
2023/04/23 05:25:31;;;;;;;;;;;11.10;99.90;;;;;;5097795;28;19908;-59
2023/04/23 05:27:57;;;;;;;;;;;11.10;99.90;;;;;;5097835;28;19920;-59
2023/04/23 05:30:22;;;;;;;;;;;11.10;99.90;;;;;;5097995;28;19912;-59
2023/04/23 05:32:48;;;;;;;;;;;11.10;99.90;;;;;;5098014;28;20014;-59
2023/04/23 05:35:13;;;;;;;;;;;11.10;99.90;;;;;;5097973;28;19908;-59
2023/04/23 05:37:39;;;;;;;;;;;11.10;99.90;;;;;;5097761;28;20247;-59
2023/04/23 05:40:06;;;;;;;;;;;11.10;99.90;;;;;;5098009;28;19908;-59
2023/04/23 05:42:33;;;;;;;;;;;11.10;99.90;;;;;;5097953;28;19908;-59
2023/04/23 05:44:59;;;;;;;;;;;11.00;99.90;;;;;;5097964;28;19954;-59
2023/04/23 05:47:24;;;;;;;;;;;11.00;99.90;;;;;;5097914;28;19913;-59
2023/04/23 05:49:50;;;;;;;;;;;11.00;99.90;;;;;;5099538;28;19912;-59
2023/04/23 05:52:16;;;;;;;;;;;10.90;99.90;;;;;;5101769;28;19908;-59
2023/04/23 05:54:42;;;;;;;;;;;11.10;99.90;;;;;;5101561;28;19908;-59
2023/04/23 05:57:08;;;;;;;;;;;11.10;99.90;;;;;;5101380;28;19945;-59
2023/04/23 05:59:33;;;;;;;;;;;11.10;99.90;;;;;;5101720;28;19915;-59
2023/04/23 06:01:59;;;;;;;;;;;11.10;99.90;;;;;;5101756;28;19991;-59
2023/04/23 06:04:25;;;;;;;;;;;11.10;99.90;;;;;;5101596;28;20324;-59
2023/04/23 06:06:51;;;;;;;;;;;11.10;99.90;;;;;;5101173;28;20382;-59
2023/04/23 06:09:16;;;;;;;;;;;11.10;99.90;;;;;;5101403;28;20042;-59
2023/04/23 06:11:42;;;;;;;;;;;11.00;99.90;;;;;;5101299;28;19915;-59
2023/04/23 06:14:08;;;;;;;;;;;11.10;99.90;;;;;;5101230;28;19912;-59
2023/04/23 06:16:33;;;;;;;;;;;11.20;99.90;;;;;;5101378;28;19908;-59
2023/04/23 06:18:59;;;;;;;;;;;11.30;99.90;;;;;;5101055;28;19908;-59
2023/04/23 06:21:26;;;;;;;;;;;11.40;99.90;;;;;;5101573;28;19908;-59
2023/04/23 06:23:51;;;;;;;;;;;11.40;99.90;;;;;;5101246;28;20003;-59
2023/04/23 06:26:17;;;;;;;;;;;11.50;99.90;;;;;;5101212;28;19951;-59
2023/04/23 06:28:45;;;;;;;;;;;11.60;99.90;;;;;;5100604;28;20011;-59
2023/04/23 06:31:10;;;;;;;;;;;11.60;99.90;;;;;;5100782;28;20402;-59
2023/04/23 06:33:36;;;;;;;;;;;11.60;99.90;;;;;;5101134;28;19908;-59
2023/04/23 06:36:02;;;;;;;;;;;11.60;99.90;;;;;;5100770;28;19908;-59
2023/04/23 06:38:28;;;;;;;;;;;11.60;99.90;;;;;;5100995;28;19916;-59
2023/04/23 06:40:54;;;;;;;;;;;11.70;99.90;;;;;;5101202;28;19909;-59
2023/04/23 06:43:20;;;;;;;;;;;11.80;99.90;;;;;;5100845;28;19919;-59
2023/04/23 06:45:45;;;;;;;;;;;11.70;99.90;;;;;;5101064;28;20310;-59
2023/04/23 06:48:11;;;;;;;;;;;11.70;99.90;;;;;;5100619;28;19908;-59
2023/04/23 06:50:37;;;;;;;;;;;11.90;99.90;;;;;;5100455;28;19912;-59
2023/04/23 06:53:02;;;;;;;;;;;12.00;99.90;;;;;;5100656;28;19998;-59
2023/04/23 06:55:28;;;;;;;;;;;12.10;99.90;;;;;;5100601;28;19957;-59
2023/04/23 06:57:54;;;;;;;;;;;12.10;99.90;;;;;;5100368;28;19960;-59
2023/04/23 07:00:21;;;;;;;;;;;12.20;99.90;;;;;;5100449;28;20002;-59
2023/04/23 07:02:46;;;;;;;;;;;12.30;99.90;;;;;;5100359;28;19919;-59
2023/04/23 07:05:12;;;;;;;;;;;12.40;99.90;;;;;;5100638;28;19997;-59
2023/04/23 07:07:39;;;;;;;;;;;12.60;99.90;;;;;;5100271;28;20353;-59
2023/04/23 07:10:06;;;;;;;;;;;12.50;99.90;;;;;;5100270;28;19918;-59
2023/04/23 07:12:31;;;;;;;;;;;12.50;99.90;;;;;;5099932;28;19952;-59
2023/04/23 07:14:57;;;;;;;;;;;12.50;99.90;;;;;;5099477;28;19908;-59
2023/04/23 07:17:22;;;;;;;;;;;12.50;99.90;;;;;;5100193;28;19915;-59
2023/04/23 07:19:48;;;;;;;;;;;12.40;99.90;;;;;;5099939;28;19930;-59
2023/04/23 07:22:14;;;;;;;;;;;12.50;99.90;;;;;;5100365;28;19908;-59
2023/04/23 07:24:40;;;;;;;;;;;12.50;99.90;;;;;;5099896;28;19919;-59
2023/04/23 07:27:06;;;;;;;;;;;12.50;99.90;;;;;;5098691;28;19927;-59
2023/04/23 07:29:31;;;;;;;;;;;12.70;99.90;;;;;;5099523;28;19912;-59
2023/04/23 07:31:57;;;;;;;;;;;12.70;99.90;;;;;;5099834;28;19908;-59
2023/04/23 07:34:23;;;;;;;;;;;12.80;99.90;;;;;;5099794;28;20010;-59
2023/04/23 07:36:48;;;;;;;;;;;12.90;99.90;;;;;;5099979;28;19939;-59
2023/04/23 07:39:14;;;;;;;;;;;13.00;99.90;;;;;;5099388;28;19934;-59
2023/04/23 07:41:40;;;;;;;;;;;13.10;99.90;;;;;;5099588;28;19955;-59
2023/04/23 07:44:05;;;;;;;;;;;13.20;99.90;;;;;;5099882;28;19908;-59
2023/04/23 07:46:31;;;;;;;;;;;13.20;99.90;;;;;;5099319;28;19908;-59
2023/04/23 07:48:57;;;;;;;;;;;13.30;99.90;;;;;;5099329;28;19916;-59
2023/04/23 07:51:25;;;;;;;;;;;13.30;99.90;;;;;;5099431;28;19954;-59
2023/04/23 07:53:53;;;;;;;;;;;13.40;99.90;;;;;;5099260;28;19908;-59
2023/04/23 07:56:21;;;;;;;;;;;13.40;99.90;;;;;;5099290;28;20089;-59
2023/04/23 07:58:47;;;;;;;;;;;13.50;99.90;;;;;;5098893;28;20360;-59
2023/04/23 08:01:13;;;;;;;;;;;13.60;99.90;;;;;;5098959;28;19973;-59
2023/04/23 08:03:39;;;;;;;;;;;13.70;99.90;;;;;;5098780;28;19916;-59
2023/04/23 08:06:05;;;;;;;;;;;13.90;99.90;;;;;;5098944;28;20344;-59
2023/04/23 08:08:30;;;;;;;;;;;13.90;99.90;;;;;;5099410;28;19950;-59
2023/04/23 08:10:56;;;;;;;;;;;14.00;99.90;;;;;;5098761;28;20329;-59
2023/04/23 08:13:22;;;;;;;;;;;13.90;99.90;;;;;;5098244;28;19908;-59
2023/04/23 08:15:48;;;;;;;;;;;13.90;99.90;;;;;;5098918;28;19916;-59
2023/04/23 08:18:13;;;;;;;;;;;13.80;99.90;;;;;;5099121;28;19915;-59
2023/04/23 08:20:39;;;;;;;;;;;13.80;99.90;;;;;;5098949;28;20276;-59
2023/04/23 08:23:05;;;;;;;;;;;13.80;99.90;;;;;;5098606;28;19908;-59
2023/04/23 08:25:31;;;;;;;;;;;13.80;99.90;;;;;;5098847;28;20351;-59
2023/04/23 08:27:57;;;;;;;;;;;13.80;99.90;;;;;;5098375;28;20071;-59
2023/04/23 08:30:23;;;;;;;;;;;13.80;99.90;;;;;;5098595;28;19961;-59
2023/04/23 08:32:50;;;;;;;;;;;13.80;99.90;;;;;;5098482;28;19908;-59
2023/04/23 08:35:16;;;;;;;;;;;13.80;99.90;;;;;;5098586;28;19930;-59
2023/04/23 08:37:41;;;;;;;;;;;13.60;99.90;;;;;;5098540;28;20447;-59
2023/04/23 08:40:08;;;;;;;;;;;13.80;99.90;;;;;;5098289;28;19908;-59
2023/04/23 08:42:43;;;;;;;;;;;13.80;99.90;;;;;;5098025;28;19943;-59
2023/04/23 08:45:09;;;;;;;;;;;13.80;99.90;;;;;;5098509;28;19908;-58
2023/04/23 08:47:37;;;;;;;;;;;13.90;99.90;;;;;;5098254;28;19919;-59
2023/04/23 08:50:03;;;;;;;;;;;13.90;99.90;;;;;;5098093;28;20287;-59
2023/04/23 08:52:32;;;;;;;;;;;13.90;99.90;;;;;;5098268;28;19932;-59
2023/04/23 08:54:59;;;;;;;;;;;14.20;99.90;;;;;;5098505;28;19909;-59
2023/04/23 08:57:25;;;;;;;;;;;14.30;99.90;;;;;;5098167;28;19908;-59
2023/04/23 08:59:51;;;;;;;;;;;14.30;99.90;;;;;;5098525;28;20344;-59
2023/04/23 09:02:17;;;;;;;;;;;14.40;99.90;;;;;;5098053;28;19917;-59
2023/04/23 09:04:44;;;;;;;;;;;14.30;99.90;;;;;;5096866;28;19912;-59
2023/04/23 09:07:12;;;;;;;;;;;14.20;99.90;;;;;;5098247;28;20426;-59
2023/04/23 09:09:39;;;;;;;;;;;14.10;99.90;;;;;;5097708;28;19916;-59
2023/04/23 09:12:05;;;;;;;;;;;14.10;99.90;;;;;;5097763;28;19909;-59
2023/04/23 09:14:32;;;;;;;;;;;14.10;99.90;;;;;;5098032;28;19908;-59
2023/04/23 09:16:57;;;;;;;;;;;14.30;99.90;;;;;;5098007;28;19934;-59
2023/04/23 09:19:26;;;;;;;;;;;14.50;99.90;;;;;;5098148;28;19908;-59
2023/04/23 09:21:52;;;;;;;;;;;14.70;99.90;;;;;;5097873;28;19908;-59
2023/04/23 09:24:20;;;;;;;;;;;14.80;99.90;;;;;;5098958;28;20291;-59
2023/04/23 09:26:49;;;;;;;;;;;15.00;99.90;;;;;;5101748;28;19916;-59
2023/04/23 09:29:17;;;;;;;;;;;14.90;99.90;;;;;;5101935;28;20371;-59
2023/04/23 09:31:46;;;;;;;;;;;15.20;99.90;;;;;;5101755;28;19961;-59
2023/04/23 09:34:17;;;;;;;;;;;15.30;99.90;;;;;;5101685;28;19950;-59
2023/04/23 09:36:44;;;;;;;;;;;15.40;99.90;;;;;;5101542;28;20283;-59
2023/04/23 09:39:13;;;;;;;;;;;15.70;99.90;;;;;;5101647;28;19915;-59
2023/04/23 09:41:38;;;;;;;;;;;16.10;99.90;;;;;;5101902;28;19923;-59
2023/04/23 09:44:04;;;;;;;;;;;16.20;99.90;;;;;;5101489;28;19908;-59
2023/04/23 09:46:37;;;;;;;;;;;16.20;99.90;;;;;;5101697;28;20003;-59
2023/04/23 09:49:03;;;;;;;;;;;16.50;99.90;;;;;;5102104;28;19995;-59
2023/04/23 09:51:29;;;;;;;;;;;16.90;99.90;;;;;;5101747;28;19916;-59
2023/04/23 09:53:55;;;;;;;;;;;17.10;99.90;;;;;;5101412;28;19908;-59
2023/04/23 09:56:21;;;;;;;;;;;17.00;99.90;;;;;;5101531;28;19915;-59
2023/04/23 09:58:46;;;;;;;;;;;17.10;99.90;;;;;;5101475;28;19909;-59
2023/04/23 10:01:14;;;;;;;;;;;17.30;99.90;;;;;;5101888;28;19930;-59
2023/04/23 10:03:42;;;;;;;;;;;18.20;99.90;;;;;;5101280;28;19990;-60
2023/04/23 10:06:14;;;;;;;;;;;18.60;99.90;;;;;;5101592;28;19912;-60
2023/04/23 10:08:40;;;;;;;;;;;18.20;99.90;;;;;;5101248;28;19919;-60
2023/04/23 10:11:06;;;;;;;;;;;18.00;99.90;;;;;;5101337;28;19912;-60
2023/04/23 10:13:33;;;;;;;;;;;17.90;99.90;;;;;;5101279;28;19908;-60
2023/04/23 10:16:00;;;;;;;;;;;17.80;99.90;;;;;;5100862;28;20344;-60
2023/04/23 10:18:26;;;;;;;;;;;17.70;99.90;;;;;;5100724;28;19912;-60
2023/04/23 10:20:52;;;;;;;;;;;17.30;99.90;;;;;;5101299;28;19934;-60
2023/04/23 10:23:20;;;;;;;;;;;17.30;99.90;;;;;;5101014;28;19908;-60
2023/04/23 10:25:46;;;;;;;;;;;17.10;99.90;;;;;;5101140;28;19908;-60
2023/04/23 10:28:14;;;;;;;;;;;17.50;99.90;;;;;;5100632;28;19971;-60
2023/04/23 10:30:40;;;;;;;;;;;17.80;99.90;;;;;;5101081;28;20413;-60
2023/04/23 10:33:06;;;;;;;;;;;18.20;99.90;;;;;;5100767;28;19912;-59
2023/04/23 10:35:32;;;;;;;;;;;18.20;99.90;;;;;;5100788;28;19908;-59
2023/04/23 10:37:58;;;;;;;;;;;17.70;99.90;;;;;;5100725;28;20397;-59
2023/04/23 10:40:28;;;;;;;;;;;17.00;99.90;;;;;;5101048;28;19961;-59
2023/04/23 10:42:54;;;;;;;;;;;16.60;99.90;;;;;;5100855;28;19974;-59
2023/04/23 10:45:20;;;;;;;;;;;16.20;99.90;;;;;;5100484;28;20382;-59
2023/04/23 10:47:46;;;;;;;;;;;16.00;99.90;;;;;;5100704;28;19969;-59
2023/04/23 10:50:24;;;;;;;;;;;15.70;99.90;;;;;;5100965;28;19919;-59
2023/04/23 10:52:52;;;;;;;;;;;15.60;99.90;;;;;;5100385;28;20306;-59
2023/04/23 10:55:19;;;;;;;;;;;16.20;99.90;;;;;;5100465;28;19931;-59
2023/04/23 10:58:01;;;;;;;;;;;18.00;99.90;;;;;;5100479;28;19908;-60
2023/04/23 11:00:28;;;;;;;;;;;19.40;99.90;;;;;;5100063;28;19953;-60
2023/04/23 11:02:54;;;;;;;;;;;20.90;99.90;;;;;;5100188;28;19909;-60
2023/04/23 11:05:24;;;;;;;;;;;20.70;99.90;;;;;;5100419;28;20383;-60
2023/04/23 11:08:04;;;;;;;;;;;20.30;99.90;;;;;;5100261;28;19915;-60
2023/04/23 11:10:30;;;;;;;;;;;19.90;99.90;;;;;;5100321;28;19912;-59
2023/04/23 11:12:56;;;;;;;;;;;20.40;99.90;;;;;;5100334;28;19961;-59
2023/04/23 11:15:22;;;;;;;;;;;20.00;99.90;;;;;;5099983;28;19908;-59
2023/04/23 11:17:51;;;;;;;;;;;19.20;94.80;;;;;;5099897;28;20260;-59
2023/04/23 11:20:20;;;;;;;;;;;19.40;99.90;;;;;;5100120;28;19909;-59
2023/04/23 11:22:47;;;;;;;;;;;19.10;99.90;;;;;;5099855;28;19908;-59
2023/04/23 11:25:14;;;;;;;;;;;19.20;99.90;;;;;;5099888;28;19915;-59
2023/04/23 11:27:44;;;;;;;;;;;19.20;99.90;;;;;;5099600;28;19931;-59
2023/04/23 11:30:11;;;;;;;;;;;18.70;99.90;;;;;;5099799;28;19916;-59
2023/04/23 11:32:37;;;;;;;;;;;18.30;99.90;;;;;;5099328;28;20041;-59
2023/04/23 11:35:04;;;;;;;;;;;19.20;99.90;;;;;;5099542;28;19947;-59
2023/04/23 11:37:30;;;;;;;;;;;19.20;99.90;;;;;;5099660;28;19908;-59
2023/04/23 11:39:55;;;;;;;;;;;19.30;99.90;;;;;;5099561;28;19995;-59
2023/04/23 11:42:21;;;;;;;;;;;20.20;99.90;;;;;;5099603;28;20371;-59
2023/04/23 11:44:46;;;;;;;;;;;19.80;99.90;;;;;;5099567;28;19908;-60
2023/04/23 11:47:13;;;;;;;;;;;20.10;99.90;;;;;;5098659;28;19975;-59
2023/04/23 11:49:39;;;;;;;;;;;20.40;99.90;;;;;;5099298;28;19938;-59
2023/04/23 11:52:05;;;;;;;;;;;20.40;98.60;;;;;;5099691;28;19992;-60
2023/04/23 11:54:32;;;;;;;;;;;20.60;99.10;;;;;;5098622;28;19908;-60
2023/04/23 11:56:58;;;;;;;;;;;21.50;99.90;;;;;;5099171;28;19915;-60
2023/04/23 11:59:24;;;;;;;;;;;22.00;92.00;;;;;;5098834;28;20268;-60
2023/04/23 12:01:54;;;;;;;;;;;21.20;98.50;;;;;;5098815;28;19908;-60
2023/04/23 12:04:20;;;;;;;;;;;21.40;98.90;;;;;;5098850;28;19954;-60
2023/04/23 12:06:47;;;;;;;;;;;21.80;99.90;;;;;;5099047;28;19908;-60
2023/04/23 12:09:13;;;;;;;;;;;22.30;98.20;;;;;;5098763;28;19916;-59
2023/04/23 12:11:40;;;;;;;;;;;21.60;73.90;;;;;;5098845;28;20255;-59
2023/04/23 12:14:07;;;;;;;;;;;21.70;98.30;;;;;;5098955;28;19912;-60
2023/04/23 12:16:40;;;;;;;;;;;21.30;82.60;;;;;;5098490;28;19951;-60
2023/04/23 12:19:09;;;;;;;;;;;21.90;78.80;;;;;;5098891;28;19908;-60
2023/04/23 12:21:46;;;;;;;;;;;22.00;95.40;;;;;;5098981;28;19908;-60
2023/04/23 12:24:12;;;;;;;;;;;22.50;92.30;;;;;;5098452;28;20355;-60
2023/04/23 12:26:38;;;;;;;;;;;22.20;79.30;;;;;;5098806;28;19908;-60
2023/04/23 12:29:06;;;;;;;;;;;21.90;76.70;;;;;;5099058;28;19930;-60
2023/04/23 12:31:31;;;;;;;;;;;22.20;72.50;;;;;;5098643;28;19912;-60
2023/04/23 12:33:58;;;;;;;;;;;22.10;93.60;;;;;;5098540;28;20367;-60
2023/04/23 12:36:25;;;;;;;;;;;22.20;82.80;;;;;;5098305;28;19908;-60
2023/04/23 12:38:51;;;;;;;;;;;22.50;77.20;;;;;;5098583;28;19915;-60
2023/04/23 12:41:17;;;;;;;;;;;22.50;76.00;;;;;;5098210;28;19908;-60
2023/04/23 12:43:47;;;;;;;;;;;22.60;84.30;;;;;;5098783;28;19958;-60
2023/04/23 12:46:13;;;;;;;;;;;22.80;73.60;;;;;;5098848;28;19947;-60
2023/04/23 12:48:38;;;;;;;;;;;22.70;75.00;;;;;;5098333;28;19908;-60
2023/04/23 12:51:05;;;;;;;;;;;22.40;79.20;;;;;;5098546;28;20454;-60
2023/04/23 12:53:31;;;;;;;;;;;22.50;80.20;;;;;;5098219;28;19908;-60
2023/04/23 12:55:56;;;;;;;;;;;22.40;72.10;;;;;;5098511;28;19954;-60
2023/04/23 12:58:22;;;;;;;;;;;22.40;82.20;;;;;;5098261;28;20027;-59
2023/04/23 13:00:48;;;;;;;;;;;21.80;70.10;;;;;;5098262;28;19929;-59
2023/04/23 13:03:14;;;;;;;;;;;21.00;83.30;;;;;;5098536;28;20371;-60
2023/04/23 13:05:40;;;;;;;;;;;21.10;89.70;;;;;;5098248;28;19977;-59
2023/04/23 13:08:06;;;;;;;;;;;20.40;84.90;;;;;;5097521;28;19908;-59
2023/04/23 13:10:31;;;;;;;;;;;20.10;80.90;;;;;;5097893;28;20003;-59
2023/04/23 13:12:57;;;;;;;;;;;20.00;80.70;;;;;;5098404;28;19934;-59
2023/04/23 13:15:23;;;;;;;;;;;19.90;75.20;;;;;;5097936;28;19912;-59
2023/04/23 13:17:48;;;;;;;;;;;19.10;78.60;;;;;;5098137;28;19953;-59
2023/04/23 13:20:14;;;;;;;;;;;18.90;87.30;;;;;;5098087;28;20367;-59
2023/04/23 13:22:40;;;;;;;;;;;18.40;82.70;;;;;;5097913;28;19912;-59
2023/04/23 13:25:05;;;;;;;;;;;17.90;84.60;;;;;;5097862;28;19909;-59
2023/04/23 13:27:31;;;;;;;;;;;17.60;90.10;;;;;;5097750;28;19920;-59
2023/04/23 13:29:57;;;;;;;;;;;17.40;92.50;;;;;;5098169;28;19916;-59
2023/04/23 13:32:25;;;;;;;;;;;17.20;93.90;;;;;;5097557;28;19915;-59
2023/04/23 13:34:51;;;;;;;;;;;17.30;93.90;;;;;;5097944;28;19939;-59
2023/04/23 13:37:17;;;;;;;;;;;17.20;92.70;;;;;;5098068;28;19908;-59
2023/04/23 13:39:43;;;;;;;;;;;17.10;94.80;;;;;;5097840;28;19908;-59
2023/04/23 13:42:08;;;;;;;;;;;17.10;95.50;;;;;;5097930;28;19915;-59
2023/04/23 13:44:34;;;;;;;;;;;17.30;94.30;;;;;;5097641;28;20538;-59
2023/04/23 13:46:59;;;;;;;;;;;17.10;96.10;;;;;;5097438;28;19913;-59
2023/04/23 13:49:25;;;;;;;;;;;17.20;95.10;;;;;;5097503;28;19908;-59
2023/04/23 13:51:53;;;;;;;;;;;17.20;93.00;;;;;;5097671;28;19908;-59
2023/04/23 13:54:19;;;;;;;;;;;17.00;92.70;;;;;;5098013;28;19908;-59
2023/04/23 13:56:44;;;;;;;;;;;16.90;94.50;;;;;;5097589;28;19916;-59
2023/04/23 13:59:11;;;;;;;;;;;17.10;95.60;;;;;;5097468;28;20591;-59
2023/04/23 14:01:37;;;;;;;;;;;17.30;97.60;;;;;;5097702;28;19975;-59
2023/04/23 14:04:03;;;;;;;;;;;17.60;97.00;;;;;;5097677;28;20334;-59
2023/04/23 14:06:28;;;;;;;;;;;17.80;97.00;;;;;;5097849;28;19915;-59
2023/04/23 14:08:54;;;;;;;;;;;17.80;96.40;;;;;;5097355;28;19909;-59
2023/04/23 14:11:20;;;;;;;;;;;18.00;93.50;;;;;;5100384;28;19915;-59